createdAt,value
2023-05-02T00:00:06.188Z,22.53
2023-05-02T00:02:33.807Z,22.54
2023-05-02T00:05:00.773Z,22.50
2023-05-02T00:07:27.876Z,22.50
2023-05-02T00:09:55.339Z,22.49
2023-05-02T00:12:22.144Z,22.49
2023-05-02T00:14:49.085Z,22.40
2023-05-02T00:17:17.992Z,22.41
2023-05-02T00:19:45.029Z,22.39
2023-05-02T00:22:11.829Z,22.34
2023-05-02T00:24:38.717Z,22.34
2023-05-02T00:27:06.505Z,22.31
2023-05-02T00:29:33.301Z,22.30
2023-05-02T00:32:00.158Z,22.27
2023-05-02T00:34:31.178Z,22.26
2023-05-02T00:36:58.134Z,22.26
2023-05-02T00:39:24.961Z,22.26
2023-05-02T00:42:01.842Z,22.24
2023-05-02T00:44:29.119Z,22.19
2023-05-02T00:46:57.008Z,22.19
2023-05-02T00:49:24.021Z,22.16
2023-05-02T00:51:50.832Z,22.16
2023-05-02T00:54:17.939Z,22.16
2023-05-02T00:56:44.915Z,22.14
2023-05-02T00:59:12.434Z,22.12
2023-05-02T01:01:42.675Z,22.11
2023-05-02T01:04:13.613Z,22.11
2023-05-02T01:06:54.601Z,22.09
2023-05-02T01:09:31.622Z,22.11
2023-05-02T01:11:59.577Z,22.07
2023-05-02T01:14:29.982Z,22.07
2023-05-02T01:16:57.060Z,22.07
2023-05-02T01:19:29.664Z,22.04
2023-05-02T01:21:57.103Z,22.04
2023-05-02T01:24:27.921Z,22.02
2023-05-02T01:27:04.401Z,22.03
2023-05-02T01:29:32.707Z,22.02
2023-05-02T01:32:01.730Z,22.02
2023-05-02T01:34:30.109Z,22.01
2023-05-02T01:37:00.735Z,22.00
2023-05-02T01:39:27.877Z,22.01
2023-05-02T01:41:57.104Z,21.97
2023-05-02T01:44:24.746Z,21.99
2023-05-02T01:46:53.381Z,21.95
2023-05-02T01:49:22.214Z,21.94
2023-05-02T01:51:50.743Z,21.91
2023-05-02T01:54:18.977Z,21.92
2023-05-02T01:56:46.834Z,21.90
2023-05-02T01:59:15.637Z,21.89
2023-05-02T02:01:45.534Z,21.89
2023-05-02T02:04:14.091Z,21.88
2023-05-02T02:06:43.849Z,21.86
2023-05-02T02:09:10.705Z,21.84
2023-05-02T02:11:44.505Z,21.84
2023-05-02T02:14:15.540Z,21.84
2023-05-02T02:16:42.984Z,21.82
2023-05-02T02:19:11.325Z,21.83
2023-05-02T02:21:39.434Z,21.80
2023-05-02T02:24:06.940Z,21.80
2023-05-02T02:26:34.299Z,21.80
2023-05-02T02:29:01.772Z,21.78
2023-05-02T02:31:40.070Z,21.76
2023-05-02T02:34:07.047Z,21.77
2023-05-02T02:36:36.661Z,21.77
2023-05-02T02:39:04.016Z,21.77
2023-05-02T02:41:39.432Z,21.76
2023-05-02T02:44:19.434Z,21.76
2023-05-02T02:46:49.281Z,21.76
2023-05-02T02:49:27.639Z,21.73
2023-05-02T02:51:59.254Z,21.73
2023-05-02T02:54:35.343Z,21.72
2023-05-02T02:57:04.820Z,21.73
2023-05-02T02:59:34.461Z,21.71
2023-05-02T03:02:07.480Z,21.70
2023-05-02T03:04:42.606Z,21.71
2023-05-02T03:07:09.712Z,21.70
2023-05-02T03:09:46.626Z,21.70
2023-05-02T03:12:14.021Z,21.70
2023-05-02T03:14:41.565Z,21.68
2023-05-02T03:17:08.894Z,21.67
2023-05-02T03:19:36.254Z,21.69
2023-05-02T03:22:03.307Z,21.67
2023-05-02T03:24:30.251Z,21.68
2023-05-02T03:26:57.682Z,21.67
2023-05-02T03:29:24.931Z,21.67
2023-05-02T03:31:52.124Z,21.66
2023-05-02T03:34:20.076Z,21.64
2023-05-02T03:36:46.847Z,21.63
2023-05-02T03:39:13.700Z,21.65
2023-05-02T03:41:40.470Z,21.63
2023-05-02T03:44:07.521Z,21.61
2023-05-02T03:46:34.326Z,21.62
2023-05-02T03:49:01.173Z,21.60
2023-05-02T03:51:28.017Z,21.59
2023-05-02T03:53:55.136Z,21.61
2023-05-02T03:56:22.025Z,21.61
2023-05-02T03:58:49.573Z,21.59
2023-05-02T04:01:17.178Z,21.58
2023-05-02T04:03:44.056Z,21.59
2023-05-02T04:06:11.376Z,21.58
2023-05-02T04:08:38.149Z,21.57
2023-05-02T04:11:04.999Z,21.56
2023-05-02T04:13:32.315Z,21.56
2023-05-02T04:15:59.136Z,21.56
2023-05-02T04:18:26.012Z,21.56
2023-05-02T04:20:52.830Z,21.55
2023-05-02T04:23:19.698Z,21.56
2023-05-02T04:25:56.840Z,21.54
2023-05-02T04:28:24.304Z,21.54
2023-05-02T04:30:51.960Z,21.53
2023-05-02T04:33:19.035Z,21.51
2023-05-02T04:35:45.929Z,21.51
2023-05-02T04:38:14.550Z,21.50
2023-05-02T04:40:41.514Z,21.49
2023-05-02T04:43:08.348Z,21.51
2023-05-02T04:45:40.008Z,21.49
2023-05-02T04:48:06.903Z,21.49
2023-05-02T04:50:33.966Z,21.47
2023-05-02T04:53:00.781Z,21.47
2023-05-02T04:55:29.184Z,21.47
2023-05-02T04:57:56.065Z,21.48
2023-05-02T05:00:23.103Z,21.45
2023-05-02T05:02:50.108Z,21.48
2023-05-02T05:05:16.991Z,21.46
2023-05-02T05:07:43.926Z,21.45
2023-05-02T05:10:13.351Z,21.45
2023-05-02T05:12:40.239Z,21.44
2023-05-02T05:15:07.584Z,21.42
2023-05-02T05:17:34.861Z,21.43
2023-05-02T05:20:02.038Z,21.44
2023-05-02T05:22:28.980Z,21.41
2023-05-02T05:24:55.865Z,21.44
2023-05-02T05:27:22.820Z,21.44
2023-05-02T05:29:49.615Z,21.41
2023-05-02T05:32:16.513Z,21.42
2023-05-02T05:34:43.352Z,21.41
2023-05-02T05:37:10.163Z,21.44
2023-05-02T05:39:37.043Z,21.40
2023-05-02T05:42:04.042Z,21.39
2023-05-02T05:44:31.988Z,21.37
2023-05-02T05:46:59.022Z,21.37
2023-05-02T05:49:25.938Z,21.35
2023-05-02T05:51:52.814Z,21.35
2023-05-02T05:54:19.673Z,21.35
2023-05-02T05:56:48.889Z,21.34
2023-05-02T05:59:16.007Z,21.35
2023-05-02T06:01:43.050Z,21.34
2023-05-02T06:04:10.166Z,21.34
2023-05-02T06:06:37.229Z,21.33
2023-05-02T06:09:04.656Z,21.32
2023-05-02T06:11:31.461Z,21.33
2023-05-02T06:13:58.306Z,21.34
2023-05-02T06:16:25.399Z,21.33
2023-05-02T06:18:53.396Z,21.33
2023-05-02T06:21:20.436Z,21.32
2023-05-02T06:23:47.310Z,21.30
2023-05-02T06:26:14.526Z,21.30
2023-05-02T06:28:41.538Z,21.32
2023-05-02T06:31:08.602Z,21.28
2023-05-02T06:33:35.833Z,21.30
2023-05-02T06:36:05.148Z,21.30
2023-05-02T06:38:32.157Z,21.31
2023-05-02T06:40:59.274Z,21.30
2023-05-02T06:43:26.230Z,21.29
2023-05-02T06:45:54.599Z,21.29
2023-05-02T06:48:22.039Z,21.28
2023-05-02T06:50:49.537Z,21.32
2023-05-02T06:53:16.803Z,21.29
2023-05-02T06:55:44.898Z,21.29
2023-05-02T06:58:11.968Z,21.28
2023-05-02T07:00:38.915Z,21.28
2023-05-02T07:03:05.988Z,21.26
2023-05-02T07:05:33.443Z,21.25
2023-05-02T07:08:00.765Z,21.26
2023-05-02T07:10:29.964Z,21.28
2023-05-02T07:12:56.975Z,21.25
2023-05-02T07:15:25.669Z,21.26
2023-05-02T07:17:52.860Z,21.26
2023-05-02T07:20:20.330Z,21.26
2023-05-02T07:22:47.330Z,21.24
2023-05-02T07:25:14.204Z,21.24
2023-05-02T07:27:41.224Z,21.23
2023-05-02T07:30:08.806Z,21.23
2023-05-02T07:32:35.754Z,21.22
2023-05-02T07:35:02.696Z,21.20
2023-05-02T07:37:34.260Z,21.21
2023-05-02T07:40:02.160Z,21.25
2023-05-02T07:42:31.274Z,21.24
2023-05-02T07:44:58.761Z,21.25
2023-05-02T07:47:27.076Z,21.29
2023-05-02T07:49:54.906Z,21.25
2023-05-02T07:52:22.140Z,21.22
2023-05-02T07:54:50.829Z,21.22
2023-05-02T07:57:18.077Z,21.21
2023-05-02T07:59:45.315Z,21.20
2023-05-02T08:02:14.303Z,21.20
2023-05-02T08:04:41.666Z,21.19
2023-05-02T08:07:08.800Z,21.20
2023-05-02T08:09:36.451Z,21.18
2023-05-02T08:12:03.704Z,21.21
2023-05-02T08:14:31.082Z,21.19
2023-05-02T08:16:58.227Z,21.18
2023-05-02T08:19:25.697Z,21.18
2023-05-02T08:21:54.323Z,21.16
2023-05-02T08:24:21.772Z,21.17
2023-05-02T08:26:48.653Z,21.17
2023-05-02T08:29:15.584Z,21.17
2023-05-02T08:31:46.324Z,21.16
2023-05-02T08:34:13.281Z,21.13
2023-05-02T08:36:40.309Z,21.14
2023-05-02T08:39:08.950Z,21.17
2023-05-02T08:41:35.900Z,21.14
2023-05-02T08:44:04.745Z,21.14
2023-05-02T08:46:34.762Z,21.12
2023-05-02T08:49:03.027Z,21.14
2023-05-02T08:51:30.685Z,21.13
2023-05-02T08:53:57.825Z,21.12
2023-05-02T08:56:25.604Z,21.14
2023-05-02T08:58:52.682Z,21.12
2023-05-02T09:01:23.344Z,21.13
2023-05-02T09:03:55.051Z,21.18
2023-05-02T09:06:23.117Z,21.25
2023-05-02T09:08:51.278Z,21.31
2023-05-02T09:11:18.818Z,21.38
2023-05-02T09:13:47.469Z,21.44
2023-05-02T09:16:16.618Z,21.49
2023-05-02T09:18:44.020Z,21.54
2023-05-02T09:21:12.706Z,21.61
2023-05-02T09:23:41.479Z,21.66
2023-05-02T09:26:13.214Z,21.70
2023-05-02T09:28:41.664Z,21.77
2023-05-02T09:31:10.126Z,21.82
2023-05-02T09:33:37.787Z,21.89
2023-05-02T09:36:05.374Z,21.95
2023-05-02T09:38:32.849Z,22.00
2023-05-02T09:41:00.582Z,22.05
2023-05-02T09:43:27.583Z,22.12
2023-05-02T09:45:58.200Z,22.16
2023-05-02T09:48:25.945Z,22.23
2023-05-02T09:50:53.425Z,22.29
2023-05-02T09:53:20.671Z,22.35
2023-05-02T09:55:47.876Z,22.39
2023-05-02T09:58:26.212Z,22.44
2023-05-02T10:00:53.483Z,22.48
2023-05-02T10:03:20.689Z,22.54
2023-05-02T10:05:48.038Z,22.57
2023-05-02T10:08:16.940Z,22.61
2023-05-02T10:10:47.361Z,22.65
2023-05-02T10:13:14.890Z,22.68
2023-05-02T10:15:43.770Z,22.71
2023-05-02T10:18:16.162Z,22.74
2023-05-02T10:20:47.358Z,22.75
2023-05-02T10:23:16.277Z,22.77
2023-05-02T10:25:43.486Z,22.80
2023-05-02T10:28:11.266Z,22.82
2023-05-02T10:30:39.160Z,22.84
2023-05-02T10:33:06.561Z,22.84
2023-05-02T10:35:37.843Z,22.86
2023-05-02T10:38:06.863Z,22.87
2023-05-02T10:40:34.341Z,22.89
2023-05-02T10:43:01.710Z,22.88
2023-05-02T10:48:07.667Z,22.86
2023-05-02T10:50:45.707Z,22.84
2023-05-02T10:53:22.533Z,22.84
2023-05-02T10:56:00.167Z,22.83
2023-05-02T10:58:27.443Z,22.83
2023-05-02T11:00:54.684Z,22.83
2023-05-02T11:03:41.881Z,22.83
2023-05-02T11:06:10.297Z,22.80
2023-05-02T11:08:37.782Z,22.79
2023-05-02T11:11:14.442Z,22.76
2023-05-02T11:13:49.244Z,22.74
2023-05-02T11:16:16.675Z,22.76
2023-05-02T11:18:58.734Z,22.71
2023-05-02T11:21:29.545Z,22.69
2023-05-02T11:24:16.713Z,22.66
2023-05-02T11:26:44.100Z,22.61
2023-05-02T11:29:11.278Z,22.66
2023-05-02T11:31:39.769Z,22.68
2023-05-02T11:34:06.712Z,22.68
2023-05-02T11:36:34.458Z,22.67
2023-05-02T11:39:02.270Z,22.69
2023-05-02T11:41:38.458Z,22.69
2023-05-02T11:44:06.093Z,22.70
2023-05-02T11:46:33.817Z,22.70
2023-05-02T11:49:01.640Z,22.72
2023-05-02T11:51:29.372Z,22.71
2023-05-02T11:53:57.208Z,22.72
2023-05-02T11:56:27.286Z,22.71
2023-05-02T11:59:02.567Z,22.69
2023-05-02T12:01:31.134Z,22.69
2023-05-02T12:04:08.342Z,22.69
2023-05-02T12:06:36.383Z,22.70
2023-05-02T12:09:14.976Z,22.68
2023-05-02T12:11:45.536Z,22.66
2023-05-02T12:14:13.156Z,22.63
2023-05-02T12:16:42.307Z,22.65
2023-05-02T12:19:09.408Z,22.63
2023-05-02T12:21:37.130Z,22.62
2023-05-02T12:24:07.623Z,22.60
2023-05-02T12:26:34.878Z,22.58
2023-05-02T12:29:03.550Z,22.60
2023-05-02T12:31:32.907Z,22.60
2023-05-02T12:34:01.423Z,22.59
2023-05-02T12:36:30.170Z,22.58
2023-05-02T12:39:00.124Z,22.54
2023-05-02T12:41:36.835Z,22.51
2023-05-02T12:44:04.852Z,22.51
2023-05-02T12:46:35.240Z,22.50
2023-05-02T12:49:06.911Z,22.51
2023-05-02T12:51:35.041Z,22.48
2023-05-02T12:54:02.342Z,22.49
2023-05-02T12:56:33.155Z,22.44
2023-05-02T12:59:01.977Z,22.49
2023-05-02T13:01:29.180Z,22.41
2023-05-02T13:03:56.556Z,22.44
2023-05-02T13:06:24.114Z,22.38
2023-05-02T13:08:51.625Z,22.35
2023-05-02T13:11:18.888Z,22.35
2023-05-02T13:13:52.151Z,22.32
2023-05-02T13:16:19.388Z,22.28
2023-05-02T13:18:48.084Z,22.30
2023-05-02T13:21:15.578Z,22.28
2023-05-02T13:23:45.066Z,22.28
2023-05-02T13:26:12.492Z,22.29
2023-05-02T13:28:39.772Z,22.26
2023-05-02T13:31:07.109Z,22.26
2023-05-02T13:33:34.379Z,22.25
2023-05-02T13:36:01.938Z,22.21
2023-05-02T13:38:29.296Z,22.20
2023-05-02T13:40:56.647Z,22.19
2023-05-02T13:43:24.754Z,22.16
2023-05-02T13:45:52.780Z,22.13
2023-05-02T13:48:20.360Z,22.13
2023-05-02T13:50:47.835Z,22.10
2023-05-02T13:53:15.123Z,22.11
2023-05-02T13:55:42.564Z,22.08
2023-05-02T13:58:09.844Z,22.07
2023-05-02T14:00:37.833Z,22.07
2023-05-02T14:03:05.896Z,22.09
2023-05-02T14:05:33.237Z,22.09
2023-05-02T14:08:00.571Z,22.06
2023-05-02T14:10:27.747Z,22.07
2023-05-02T14:12:54.706Z,22.06
2023-05-02T14:15:22.322Z,22.06
2023-05-02T14:17:50.223Z,22.06
2023-05-02T14:20:17.376Z,22.04
2023-05-02T14:22:44.254Z,22.03
2023-05-02T14:25:14.612Z,22.02
2023-05-02T14:27:42.840Z,22.02
2023-05-02T14:30:10.339Z,22.00
2023-05-02T14:32:37.707Z,21.99
2023-05-02T14:35:05.045Z,21.95
2023-05-02T14:37:32.174Z,21.96
2023-05-02T14:39:59.793Z,21.93
2023-05-02T14:42:27.147Z,21.93
2023-05-02T14:44:54.482Z,21.92
2023-05-02T14:47:21.529Z,21.89
2023-05-02T14:49:48.816Z,21.88
2023-05-02T14:52:16.275Z,21.85
2023-05-02T14:54:43.432Z,21.86
2023-05-02T14:57:11.804Z,21.85
2023-05-02T14:59:39.480Z,21.84
2023-05-02T15:02:07.238Z,21.85
2023-05-02T15:04:34.444Z,21.82
2023-05-02T15:07:02.069Z,21.82
2023-05-02T15:09:29.930Z,21.80
2023-05-02T15:11:57.443Z,21.79
2023-05-02T15:14:24.567Z,21.80
2023-05-02T15:16:52.068Z,21.79
2023-05-02T15:19:19.205Z,21.78
2023-05-02T15:21:46.369Z,21.76
2023-05-02T15:24:13.444Z,21.77
2023-05-02T15:26:41.525Z,21.77
2023-05-02T15:29:08.642Z,21.75
2023-05-02T15:31:36.188Z,21.72
2023-05-02T15:34:03.950Z,21.76
2023-05-02T15:36:32.358Z,21.74
2023-05-02T15:38:59.709Z,21.73
2023-05-02T15:41:28.197Z,21.72
2023-05-02T15:43:55.574Z,21.73
2023-05-02T15:46:22.839Z,21.71
2023-05-02T15:48:50.135Z,21.69
2023-05-02T15:51:17.701Z,21.65
2023-05-02T15:53:45.449Z,21.62
2023-05-02T15:56:12.904Z,21.62
2023-05-02T15:58:40.428Z,21.60
2023-05-02T16:01:08.052Z,21.59
2023-05-02T16:03:35.769Z,21.58
2023-05-02T16:06:06.155Z,21.60
2023-05-02T16:08:33.450Z,21.60
2023-05-02T16:11:02.378Z,21.59
2023-05-02T16:13:29.717Z,21.60
2023-05-02T16:15:57.179Z,21.57
2023-05-02T16:18:28.818Z,21.59
2023-05-02T16:20:58.992Z,21.60
2023-05-02T16:23:26.790Z,21.58
2023-05-02T16:25:57.645Z,21.59
2023-05-02T16:28:25.081Z,21.50
2023-05-02T16:30:52.815Z,21.50
2023-05-02T16:33:23.045Z,21.49
2023-05-02T16:36:10.054Z,21.49
2023-05-02T16:38:37.229Z,21.50
2023-05-02T16:41:05.577Z,21.49
2023-05-02T16:43:33.492Z,21.48
2023-05-02T16:46:02.018Z,21.46
2023-05-02T16:48:29.725Z,21.47
2023-05-02T16:50:57.614Z,21.45
2023-05-02T16:53:25.401Z,21.45
2023-05-02T16:55:57.458Z,21.46
2023-05-02T16:58:25.612Z,21.45
2023-05-02T17:00:53.039Z,21.44
2023-05-02T17:03:20.356Z,21.45
2023-05-02T17:05:48.119Z,21.45
2023-05-02T17:08:17.359Z,21.45
2023-05-02T17:10:48.976Z,21.46
2023-05-02T17:13:16.959Z,21.44
2023-05-02T17:15:49.349Z,21.44
2023-05-02T17:18:17.288Z,21.44
2023-05-02T17:20:46.705Z,21.41
2023-05-02T17:23:15.147Z,21.42
2023-05-02T17:25:42.744Z,21.41
2023-05-02T17:28:10.029Z,21.40
2023-05-02T17:30:37.651Z,21.39
2023-05-02T17:33:07.554Z,21.39
2023-05-02T17:35:37.355Z,21.38
2023-05-02T17:38:04.409Z,21.37
2023-05-02T17:40:31.664Z,21.36
2023-05-02T17:43:00.175Z,21.36
2023-05-02T17:45:33.285Z,21.34
2023-05-02T17:48:04.430Z,21.33
2023-05-02T17:50:32.238Z,21.32
2023-05-02T17:52:59.718Z,21.30
2023-05-02T17:55:29.153Z,21.30
2023-05-02T17:57:59.189Z,21.31
2023-05-02T18:00:27.434Z,21.30
2023-05-02T18:02:57.934Z,21.28
2023-05-02T18:05:29.074Z,21.28
2023-05-02T18:07:56.564Z,21.24
2023-05-02T18:10:23.780Z,21.27
2023-05-02T18:12:50.951Z,21.26
2023-05-02T18:15:18.291Z,21.24
2023-05-02T18:17:45.465Z,21.25
2023-05-02T18:20:13.122Z,21.23
2023-05-02T18:22:40.641Z,21.21
2023-05-02T18:25:08.612Z,21.21
2023-05-02T18:27:35.797Z,21.20
2023-05-02T18:30:03.049Z,21.16
2023-05-02T18:32:31.920Z,21.17
2023-05-02T18:34:59.349Z,21.17
2023-05-02T18:37:31.821Z,21.15
2023-05-02T18:39:59.031Z,21.15
2023-05-02T18:42:26.081Z,21.15
2023-05-02T18:44:53.423Z,21.13
2023-05-02T18:47:20.691Z,21.13
2023-05-02T18:49:48.232Z,21.10
2023-05-02T18:52:15.120Z,21.10
2023-05-02T18:54:42.243Z,21.09
2023-05-02T18:57:09.123Z,21.07
2023-05-02T18:59:36.280Z,21.07
2023-05-02T19:02:03.287Z,21.05
2023-05-02T19:04:32.631Z,21.04
2023-05-02T19:06:59.709Z,21.04
2023-05-02T19:09:26.748Z,21.02
2023-05-02T19:11:55.428Z,21.03
2023-05-02T19:14:22.399Z,21.02
2023-05-02T19:16:50.305Z,21.01
2023-05-02T19:19:18.613Z,20.99
2023-05-02T19:21:46.479Z,20.95
2023-05-02T19:24:13.511Z,20.97
2023-05-02T19:26:40.476Z,20.94
2023-05-02T19:29:07.524Z,20.92
2023-05-02T19:31:34.903Z,20.92
2023-05-02T19:34:04.103Z,20.91
2023-05-02T19:36:31.657Z,20.89
2023-05-02T19:38:58.664Z,20.90
2023-05-02T19:41:26.168Z,20.89
2023-05-02T19:43:53.432Z,20.89
2023-05-02T19:46:21.240Z,20.88
2023-05-02T19:48:48.778Z,20.86
2023-05-02T19:51:15.845Z,20.84
2023-05-02T19:53:42.796Z,20.85
2023-05-02T19:56:09.834Z,20.83
2023-05-02T19:58:36.931Z,20.85
2023-05-02T20:01:03.885Z,20.82
2023-05-02T20:03:31.407Z,20.82
2023-05-02T20:05:58.857Z,20.80
2023-05-02T20:08:28.287Z,20.80
2023-05-02T20:10:55.797Z,20.81
2023-05-02T20:13:22.731Z,20.79
2023-05-02T20:15:50.882Z,20.83
2023-05-02T20:18:18.098Z,20.82
2023-05-02T20:20:45.197Z,20.84
2023-05-02T20:23:12.670Z,20.79
2023-05-02T20:25:40.568Z,20.78
2023-05-02T20:28:09.456Z,20.78
2023-05-02T20:30:36.386Z,20.76
2023-05-02T20:33:13.975Z,20.78
2023-05-02T20:35:42.894Z,20.76
2023-05-02T20:38:13.327Z,20.76
2023-05-02T20:40:41.031Z,20.77
2023-05-02T20:43:08.151Z,20.74
2023-05-02T20:45:35.120Z,20.75
2023-05-02T20:48:04.768Z,20.73
2023-05-02T20:50:31.729Z,20.73
2023-05-02T20:52:58.557Z,20.73
2023-05-02T20:55:25.722Z,20.72
2023-05-02T20:57:53.757Z,20.71
2023-05-02T21:00:23.037Z,20.71
2023-05-02T21:02:50.127Z,20.70
2023-05-02T21:05:17.257Z,20.69
2023-05-02T21:07:45.135Z,20.64
2023-05-02T21:10:12.214Z,20.62
2023-05-02T21:12:39.076Z,20.64
2023-05-02T21:15:06.611Z,20.62
2023-05-02T21:17:33.598Z,20.65
2023-05-02T21:20:03.082Z,20.62
2023-05-02T21:22:30.230Z,20.62
2023-05-02T21:24:57.088Z,20.64
2023-05-02T21:27:24.139Z,20.60
2023-05-02T21:29:51.346Z,20.61
2023-05-02T21:32:18.214Z,20.61
2023-05-02T21:34:45.003Z,20.58
2023-05-02T21:37:11.907Z,20.52
2023-05-02T21:39:38.958Z,20.51
2023-05-02T21:42:05.881Z,20.50
2023-05-02T21:44:32.826Z,20.53
2023-05-02T21:46:59.654Z,20.61
2023-05-02T21:49:26.636Z,20.69
2023-05-02T21:51:53.548Z,20.78
2023-05-02T21:54:20.429Z,20.85
2023-05-02T21:56:47.289Z,20.91
2023-05-02T21:59:14.105Z,20.99
2023-05-02T22:01:41.028Z,21.04
2023-05-02T22:04:07.826Z,21.10
2023-05-02T22:06:34.762Z,21.16
2023-05-02T22:09:01.808Z,21.22
2023-05-02T22:11:28.904Z,21.28
2023-05-02T22:13:55.699Z,21.32
2023-05-02T22:16:22.651Z,21.40
2023-05-02T22:18:50.309Z,21.45
2023-05-02T22:21:17.437Z,21.52
2023-05-02T22:23:45.694Z,21.56
2023-05-02T22:26:12.556Z,21.62
2023-05-02T22:28:39.593Z,21.70
2023-05-02T22:31:06.489Z,21.74
2023-05-02T22:33:33.557Z,21.79
2023-05-02T22:36:00.398Z,21.86
2023-05-02T22:38:27.326Z,21.93
2023-05-02T22:40:54.146Z,21.99
2023-05-02T22:43:21.078Z,22.04
2023-05-02T22:45:49.598Z,22.09
2023-05-02T22:48:16.443Z,22.14
2023-05-02T22:50:46.698Z,22.18
2023-05-02T22:53:13.639Z,22.23
2023-05-02T22:55:40.519Z,22.28
2023-05-02T22:58:07.372Z,22.32
2023-05-02T23:00:34.281Z,22.35
2023-05-02T23:03:01.353Z,22.39
2023-05-02T23:05:29.644Z,22.42
2023-05-02T23:07:56.493Z,22.45
2023-05-02T23:10:23.399Z,22.46
2023-05-02T23:12:50.432Z,22.48
2023-05-02T23:15:18.480Z,22.50
2023-05-02T23:17:45.421Z,22.53
2023-05-02T23:20:12.539Z,22.54
2023-05-02T23:22:44.463Z,22.56
2023-05-02T23:25:11.875Z,22.57
2023-05-02T23:27:38.693Z,22.57
2023-05-02T23:30:06.016Z,22.58
2023-05-02T23:32:33.013Z,22.58
2023-05-02T23:35:00.974Z,22.60
2023-05-02T23:37:28.539Z,22.59
2023-05-02T23:39:55.476Z,22.59
2023-05-02T23:42:22.340Z,22.58
2023-05-02T23:44:50.109Z,22.59
2023-05-02T23:47:17.110Z,22.59
2023-05-02T23:49:43.927Z,22.59
2023-05-02T23:52:11.146Z,22.59
2023-05-02T23:54:37.946Z,22.60
2023-05-02T23:57:04.841Z,22.60
2023-05-02T23:59:31.632Z,22.58
